Time;durP1;ratioP1;P1;durP2;ratioP2;P2;SDS_P1;SDS_P2;PMS_P1;PMS_P2;Temp;Humidity;BMP_temperature;BMP_pressure;BME280_temperature;BME280_humidity;BME280_pressure;Samples;Min_cycle;Max_cycle;Signal;HPM_P1;HPM_P2
2022/03/04 00:00:23;;;;;;;15.20;11.07;;;3.30;62.50;;;;;;5093251;28;20538;-56
2022/03/04 00:02:50;;;;;;;13.97;10.17;;;3.30;62.40;;;;;;5094623;28;20929;-56
2022/03/04 00:05:17;;;;;;;13.87;10.50;;;3.30;63.30;;;;;;5097499;28;20451;-57
2022/03/04 00:07:44;;;;;;;17.17;12.10;;;3.10;62.70;;;;;;5097319;28;20463;-56
2022/03/04 00:10:12;;;;;;;13.23;10.93;;;3.20;63.10;;;;;;5097327;28;20538;-57
2022/03/04 00:12:39;;;;;;;14.87;11.37;;;3.20;63.40;;;;;;5097305;28;20450;-57
2022/03/04 00:15:07;;;;;;;16.70;12.30;;;3.20;63.50;;;;;;5096959;28;20538;-58
2022/03/04 00:17:36;;;;;;;16.97;11.27;;;3.20;64.10;;;;;;5096755;28;20521;-57
2022/03/04 00:20:03;;;;;;;17.87;11.63;;;3.10;64.00;;;;;;5097134;28;20449;-58
2022/03/04 00:22:30;;;;;;;13.90;10.87;;;3.10;63.60;;;;;;5096822;28;20976;-57
2022/03/04 00:24:57;;;;;;;24.30;12.87;;;;;;;;;;5097159;28;20458;-58
2022/03/04 00:27:25;;;;;;;16.40;11.27;;;3.00;63.80;;;;;;5096469;28;20479;-58
2022/03/04 00:29:52;;;;;;;19.90;12.07;;;2.90;64.40;;;;;;5096733;28;20443;-58
2022/03/04 00:32:19;;;;;;;16.03;11.03;;;2.90;65.30;;;;;;5096943;28;20455;-58
2022/03/04 00:34:48;;;;;;;15.10;11.70;;;2.80;65.20;;;;;;5096877;28;20544;-58
2022/03/04 00:37:15;;;;;;;16.77;12.43;;;2.70;65.80;;;;;;5096717;28;20483;-58
2022/03/04 00:39:42;;;;;;;14.60;11.40;;;2.80;66.20;;;;;;5096744;28;20446;-58
2022/03/04 00:42:09;;;;;;;19.83;11.27;;;2.80;66.60;;;;;;5096742;28;20475;-58
2022/03/04 00:44:36;;;;;;;14.20;11.13;;;2.80;66.70;;;;;;5096370;28;20543;-58
2022/03/04 00:47:05;;;;;;;15.30;11.93;;;2.70;66.70;;;;;;5096292;28;20470;-58
2022/03/04 00:49:32;;;;;;;15.37;11.70;;;2.70;67.30;;;;;;5096285;28;20450;-57
2022/03/04 00:52:01;;;;;;;14.57;11.67;;;2.70;67.70;;;;;;5096219;28;20448;-57
2022/03/04 00:54:28;;;;;;;19.80;12.00;;;2.70;67.10;;;;;;5096212;28;20955;-57
2022/03/04 00:56:55;;;;;;;14.30;11.90;;;2.60;67.60;;;;;;5096002;28;20483;-57
2022/03/04 00:59:22;;;;;;;19.10;12.20;;;2.60;67.80;;;;;;5096361;28;20435;-57
2022/03/04 01:01:50;;;;;;;15.70;11.43;;;2.60;68.20;;;;;;5096134;28;20435;-56
2022/03/04 01:04:17;;;;;;;15.40;11.10;;;2.60;68.20;;;;;;5096019;28;20479;-56
2022/03/04 01:06:44;;;;;;;17.30;12.00;;;2.60;68.90;;;;;;5096158;28;20550;-56
2022/03/04 01:09:12;;;;;;;21.90;11.90;;;2.60;69.00;;;;;;5096222;28;20451;-56
2022/03/04 01:11:40;;;;;;;13.27;11.80;;;2.70;68.80;;;;;;5096194;28;20450;-59
2022/03/04 01:14:08;;;;;;;20.90;13.00;;;2.70;69.10;;;;;;5095651;28;20539;-56
2022/03/04 01:16:35;;;;;;;15.83;13.73;;;2.60;69.20;;;;;;5095594;28;20474;-57
2022/03/04 01:19:05;;;;;;;20.07;12.13;;;2.60;68.90;;;;;;5095711;28;20934;-58
2022/03/04 01:21:32;;;;;;;22.33;10.53;;;2.50;69.70;;;;;;5095700;28;21051;-58
2022/03/04 01:23:59;;;;;;;18.77;12.60;;;2.40;69.80;;;;;;5095834;28;20473;-58
2022/03/04 01:26:28;;;;;;;19.40;11.90;;;2.40;70.50;;;;;;5095249;28;20479;-57
2022/03/04 01:28:55;;;;;;;17.83;12.50;;;2.50;71.20;;;;;;5095547;28;20950;-58
2022/03/04 01:31:22;;;;;;;17.57;12.23;;;2.40;71.30;;;;;;5095788;28;20444;-58
2022/03/04 01:33:49;;;;;;;15.53;9.77;;;2.40;71.20;;;;;;5095488;28;20988;-58
2022/03/04 01:36:17;;;;;;;15.00;11.63;;;2.50;71.30;;;;;;5095406;28;20970;-58
2022/03/04 01:38:44;;;;;;;16.70;11.83;;;2.50;71.60;;;;;;5095259;28;20479;-58
2022/03/04 01:41:11;;;;;;;14.77;10.87;;;2.50;71.70;;;;;;5095641;28;20439;-58
2022/03/04 01:43:40;;;;;;;16.83;12.87;;;2.40;71.40;;;;;;5095572;28;20451;-58
2022/03/04 01:46:14;;;;;;;15.80;11.53;;;2.40;72.00;;;;;;5095438;28;20554;-57
2022/03/04 01:48:42;;;;;;;17.77;12.30;;;2.20;71.70;;;;;;5095230;28;20896;-58
2022/03/04 01:51:10;;;;;;;17.00;11.93;;;2.30;72.70;;;;;;5095085;28;20455;-58
2022/03/04 01:53:38;;;;;;;12.43;11.13;;;2.30;72.70;;;;;;5095367;28;20454;-58
2022/03/04 01:56:06;;;;;;;16.83;11.77;;;2.30;72.70;;;;;;5095429;28;20525;-58
2022/03/04 01:58:34;;;;;;;18.10;12.57;;;2.30;72.20;;;;;;5095233;28;20482;-58
2022/03/04 02:01:03;;;;;;;17.20;12.77;;;2.30;72.60;;;;;;5094941;28;20542;-58
2022/03/04 02:03:30;;;;;;;12.93;11.53;;;2.20;72.60;;;;;;5094871;28;21021;-58
2022/03/04 02:05:57;;;;;;;17.80;11.77;;;2.30;73.60;;;;;;5095083;28;20491;-58
2022/03/04 02:08:24;;;;;;;18.10;12.30;;;2.30;74.00;;;;;;5095115;28;20432;-58
2022/03/04 02:10:51;;;;;;;17.33;12.97;;;2.30;73.90;;;;;;5095038;28;20451;-58
2022/03/04 02:13:19;;;;;;;15.67;12.47;;;2.20;73.70;;;;;;5094712;28;20965;-58
2022/03/04 02:15:46;;;;;;;15.90;11.27;;;2.10;73.50;;;;;;5094576;28;20448;-58
2022/03/04 02:18:18;;;;;;;17.57;10.87;;;2.10;74.20;;;;;;5094800;28;20554;-58
2022/03/04 02:20:47;;;;;;;17.50;12.33;;;2.10;75.00;;;;;;5094944;28;20432;-58
2022/03/04 02:23:17;;;;;;;18.90;12.00;;;2.10;74.80;;;;;;5094578;28;20435;-58
2022/03/04 02:25:47;;;;;;;20.00;13.90;;;2.00;75.10;;;;;;5094235;28;20455;-58
2022/03/04 02:28:15;;;;;;;15.30;11.53;;;1.90;75.50;;;;;;5093537;28;20477;-58
2022/03/04 02:30:42;;;;;;;16.70;12.57;;;1.90;75.50;;;;;;5094467;28;20521;-58
2022/03/04 02:33:10;;;;;;;18.00;12.73;;;1.80;76.10;;;;;;5094618;28;20798;-58
2022/03/04 02:35:38;;;;;;;15.10;12.23;;;1.80;76.60;;;;;;5094269;28;20509;-58
2022/03/04 02:38:05;;;;;;;14.93;11.90;;;1.70;77.00;;;;;;5094416;28;20494;-58
2022/03/04 02:40:34;;;;;;;17.37;13.63;;;1.70;76.80;;;;;;5094227;28;20447;-57
2022/03/04 02:43:01;;;;;;;17.13;11.20;;;1.70;77.00;;;;;;5094474;28;20804;-58
2022/03/04 02:45:28;;;;;;;21.20;13.97;;;1.70;77.40;;;;;;5094094;28;20542;-58
2022/03/04 02:47:55;;;;;;;13.03;11.67;;;1.80;77.00;;;;;;5094348;28;20827;-58
2022/03/04 02:50:22;;;;;;;20.87;13.60;;;1.80;78.20;;;;;;5094379;28;20458;-58
2022/03/04 02:52:49;;;;;;;16.57;12.60;;;1.70;78.10;;;;;;5094298;28;20448;-58
2022/03/04 02:55:17;;;;;;;19.00;12.80;;;1.60;78.30;;;;;;5094177;28;20930;-58
2022/03/04 02:57:47;;;;;;;20.37;13.77;;;1.60;79.10;;;;;;5094102;28;20483;-58
2022/03/04 03:00:16;;;;;;;17.10;11.27;;;1.60;79.40;;;;;;5094458;28;20444;-58
2022/03/04 03:02:44;;;;;;;16.83;13.43;;;1.70;79.70;;;;;;5094157;28;20773;-58
2022/03/04 03:05:12;;;;;;;14.40;11.60;;;1.60;79.50;;;;;;5094442;28;20432;-58
2022/03/04 03:07:39;;;;;;;18.97;12.80;;;1.70;79.70;;;;;;5093748;28;21027;-58
2022/03/04 03:10:07;;;;;;;16.80;11.83;;;1.80;79.60;;;;;;5093753;28;20447;-58
2022/03/04 03:12:34;;;;;;;18.77;13.43;;;1.80;79.60;;;;;;5093724;28;20443;-58
2022/03/04 03:15:03;;;;;;;16.87;12.10;;;1.80;79.60;;;;;;5093670;28;20453;-58
2022/03/04 03:17:30;;;;;;;19.57;12.33;;;1.70;79.50;;;;;;5093802;28;20850;-58
2022/03/04 03:19:57;;;;;;;21.57;13.40;;;1.60;79.80;;;;;;5093942;28;20816;-58
2022/03/04 03:22:24;;;;;;;19.00;14.30;;;1.60;80.40;;;;;;5094435;28;20449;-58
2022/03/04 03:24:51;;;;;;;20.53;13.03;;;1.50;80.80;;;;;;5094005;28;20459;-58
2022/03/04 03:27:19;;;;;;;16.47;12.50;;;1.50;81.40;;;;;;5093298;28;21004;-57
2022/03/04 03:29:46;;;;;;;19.13;12.73;;;1.50;80.80;;;;;;5093847;28;20466;-57
2022/03/04 03:32:15;;;;;;;17.17;12.60;;;1.60;82.00;;;;;;5093516;28;20956;-58
2022/03/04 03:34:43;;;;;;;18.83;12.80;;;1.60;81.40;;;;;;5093471;28;20930;-58
2022/03/04 03:37:10;;;;;;;17.13;12.40;;;1.50;81.70;;;;;;5093790;28;20471;-58
2022/03/04 03:39:38;;;;;;;20.40;13.43;;;1.40;82.00;;;;;;5097875;28;20483;-58
2022/03/04 03:42:06;;;;;;;20.30;12.40;;;1.40;82.20;;;;;;5097591;28;20443;-58
2022/03/04 03:44:34;;;;;;;20.87;12.87;;;1.30;82.30;;;;;;5097899;28;20452;-57
2022/03/04 03:47:01;;;;;;;19.47;12.80;;;1.40;81.80;;;;;;5097485;28;20551;-58
2022/03/04 03:49:30;;;;;;;18.60;13.00;;;1.40;82.50;;;;;;5097479;28;20444;-58
2022/03/04 03:51:57;;;;;;;20.67;14.80;;;1.30;82.80;;;;;;5097771;28;20447;-58
2022/03/04 03:54:24;;;;;;;14.97;12.30;;;1.30;83.00;;;;;;5097387;28;20921;-58
2022/03/04 03:56:51;;;;;;;17.83;14.17;;;1.30;83.80;;;;;;5097310;28;20455;-58
2022/03/04 03:59:18;;;;;;;17.67;12.97;;;1.20;84.00;;;;;;5097222;28;20480;-58
2022/03/04 04:01:45;;;;;;;17.30;12.50;;;1.20;84.00;;;;;;5097581;28;20447;-58
2022/03/04 04:04:12;;;;;;;18.03;14.07;;;1.30;84.30;;;;;;5097464;28;20500;-58
2022/03/04 04:06:42;;;;;;;18.33;12.57;;;1.30;83.40;;;;;;5097070;28;20467;-58
2022/03/04 04:09:09;;;;;;;22.60;13.30;;;1.30;83.40;;;;;;5097373;28;20443;-58
2022/03/04 04:11:37;;;;;;;22.03;12.80;;;1.30;84.00;;;;;;5097038;28;20938;-58
2022/03/04 04:14:05;;;;;;;17.40;12.17;;;1.30;84.20;;;;;;5096943;28;20450;-58
2022/03/04 04:16:33;;;;;;;20.67;14.33;;;1.30;84.40;;;;;;5096898;28;21044;-58
2022/03/04 04:19:00;;;;;;;15.40;12.10;;;1.30;84.60;;;;;;5096799;28;20478;-58
2022/03/04 04:21:27;;;;;;;18.20;13.00;;;1.30;84.60;;;;;;5097140;28;20454;-58
2022/03/04 04:23:57;;;;;;;18.13;13.40;;;1.20;84.40;;;;;;5096814;28;20542;-58
2022/03/04 04:26:24;;;;;;;16.90;12.50;;;1.20;85.50;;;;;;5096723;28;20475;-58
2022/03/04 04:28:51;;;;;;;19.20;13.00;;;1.20;85.60;;;;;;5097557;28;20446;-58
2022/03/04 04:31:19;;;;;;;21.13;13.20;;;1.20;85.60;;;;;;5096951;28;20447;-58
2022/03/04 04:33:46;;;;;;;15.40;12.20;;;1.10;85.80;;;;;;5096977;28;20500;-58
2022/03/04 04:36:13;;;;;;;22.17;14.73;;;1.10;86.00;;;;;;5096803;28;20459;-58
2022/03/04 04:38:40;;;;;;;17.90;12.67;;;1.10;86.30;;;;;;5096444;28;20829;-58
2022/03/04 04:41:09;;;;;;;17.77;12.80;;;1.10;86.50;;;;;;5096557;28;20476;-58
2022/03/04 04:43:36;;;;;;;15.40;12.30;;;1.10;86.60;;;;;;5096456;28;20435;-58
2022/03/04 04:46:04;;;;;;;17.33;11.80;;;1.10;86.60;;;;;;5096636;28;20450;-58
2022/03/04 04:48:31;;;;;;;19.13;13.30;;;1.20;87.10;;;;;;5096040;28;20456;-58
2022/03/04 04:50:59;;;;;;;14.80;12.97;;;1.30;86.70;;;;;;5096285;28;20451;-58
2022/03/04 04:53:26;;;;;;;17.73;12.40;;;1.30;86.50;;;;;;5096559;28;20568;-58
2022/03/04 04:55:53;;;;;;;21.73;12.40;;;1.10;86.60;;;;;;5096586;28;20546;-58
2022/03/04 04:58:22;;;;;;;15.20;11.80;;;1.00;87.30;;;;;;5096122;28;20518;-58
2022/03/04 05:00:53;;;;;;;18.87;13.00;;;0.90;87.30;;;;;;5096018;28;20450;-58
2022/03/04 05:03:21;;;;;;;19.63;12.23;;;0.90;87.30;;;;;;5096377;28;20427;-58
2022/03/04 05:05:48;;;;;;;12.20;10.77;;;0.90;87.60;;;;;;5096266;28;20860;-58
2022/03/04 05:08:15;;;;;;;18.77;13.40;;;0.90;87.90;;;;;;5096280;28;20450;-58
2022/03/04 05:10:42;;;;;;;18.17;13.03;;;0.90;87.70;;;;;;5095893;28;20444;-58
2022/03/04 05:13:10;;;;;;;19.80;13.47;;;0.90;88.00;;;;;;5096143;28;20467;-58
2022/03/04 05:15:39;;;;;;;21.63;13.17;;;1.00;88.40;;;;;;5095834;28;20451;-58
2022/03/04 05:18:08;;;;;;;13.97;11.17;;;1.00;88.70;;;;;;5095597;28;20471;-58
2022/03/04 05:20:35;;;;;;;19.90;12.57;;;1.00;88.30;;;;;;5095972;28;20448;-58
2022/03/04 05:23:02;;;;;;;27.97;14.80;;;1.00;88.50;;;;;;5095664;28;20964;-58
2022/03/04 05:25:29;;;;;;;20.73;12.33;;;1.10;88.70;;;;;;5095457;28;20963;-58
2022/03/04 05:27:56;;;;;;;16.20;12.80;;;1.00;88.30;;;;;;5095415;28;20490;-58
2022/03/04 05:30:23;;;;;;;20.33;12.27;;;1.00;88.50;;;;;;5095462;28;20539;-58
2022/03/04 05:32:52;;;;;;;15.80;13.23;;;0.90;88.40;;;;;;5095452;28;20459;-58
2022/03/04 05:35:19;;;;;;;19.07;13.63;;;0.90;88.60;;;;;;5095711;28;20447;-58
2022/03/04 05:37:46;;;;;;;18.37;13.73;;;0.80;88.70;;;;;;5095278;28;20471;-58
2022/03/04 05:40:14;;;;;;;15.27;12.83;;;0.80;88.90;;;;;;5095248;28;20479;-58
2022/03/04 05:42:41;;;;;;;18.10;13.57;;;0.90;89.00;;;;;;5095594;28;20506;-58
2022/03/04 05:45:09;;;;;;;16.87;13.03;;;0.90;89.00;;;;;;5095208;28;20951;-58
2022/03/04 05:47:36;;;;;;;26.20;14.50;;;0.90;88.10;;;;;;5095395;28;20554;-58
2022/03/04 05:50:06;;;;;;;17.87;14.17;;;0.80;88.50;;;;;;5095023;28;20446;-58
2022/03/04 05:52:33;;;;;;;16.37;11.63;;;0.80;88.40;;;;;;5095413;28;20448;-58
2022/03/04 05:55:00;;;;;;;16.17;13.33;;;0.80;90.20;;;;;;5094870;28;20543;-58
2022/03/04 05:57:27;;;;;;;18.77;13.40;;;;;;;;;;5094914;28;20468;-57
2022/03/04 05:59:54;;;;;;;20.80;15.90;;;1.00;96.30;;;;;;5094268;28;20479;-58
2022/03/04 06:02:22;;;;;;;23.63;13.40;;;1.00;96.30;;;;;;5095117;28;20440;-58
2022/03/04 06:04:50;;;;;;;21.73;13.93;;;1.00;95.20;;;;;;5094834;28;20497;-58
2022/03/04 06:07:18;;;;;;;19.23;14.07;;;0.90;92.00;;;;;;5094771;28;20562;-58
2022/03/04 06:09:46;;;;;;;16.90;14.20;;;0.90;92.30;;;;;;5094728;28;20530;-59
2022/03/04 06:12:13;;;;;;;18.80;13.10;;;1.00;91.70;;;;;;5094928;28;20850;-58
2022/03/04 06:14:40;;;;;;;18.63;13.83;;;0.90;91.70;;;;;;5094953;28;20972;-58
2022/03/04 06:17:07;;;;;;;19.17;14.67;;;0.90;91.20;;;;;;5094534;28;20506;-57
2022/03/04 06:19:34;;;;;;;23.87;13.40;;;1.00;91.20;;;;;;5094769;28;20511;-58
2022/03/04 06:22:01;;;;;;;20.30;13.63;;;0.80;90.80;;;;;;5094397;28;20946;-57
2022/03/04 06:24:31;;;;;;;17.90;13.47;;;0.80;90.90;;;;;;5094538;28;20815;-58
2022/03/04 06:26:58;;;;;;;18.93;12.90;;;0.80;91.20;;;;;;5094158;28;20903;-57
2022/03/04 06:29:25;;;;;;;21.60;14.97;;;0.90;90.90;;;;;;5094290;28;20492;-57
2022/03/04 06:31:53;;;;;;;18.20;13.50;;;1.00;90.40;;;;;;5094196;28;20843;-59
2022/03/04 06:34:20;;;;;;;19.50;13.90;;;1.00;90.60;;;;;;5094556;28;20444;-58
2022/03/04 06:36:47;;;;;;;20.83;14.10;;;1.10;90.50;;;;;;5094425;28;20554;-57
2022/03/04 06:39:14;;;;;;;18.57;14.40;;;1.10;91.20;;;;;;5094083;28;20486;-57
2022/03/04 06:41:43;;;;;;;24.27;12.87;;;1.10;91.30;;;;;;5094388;28;20464;-57
2022/03/04 06:44:10;;;;;;;18.70;15.20;;;0.90;90.40;;;;;;5094322;28;20447;-57
2022/03/04 06:46:37;;;;;;;21.90;14.63;;;1.00;90.50;;;;;;5094039;28;20447;-57
2022/03/04 06:49:04;;;;;;;15.10;13.37;;;1.00;90.90;;;;;;5094269;28;20531;-57
2022/03/04 06:51:32;;;;;;;20.47;14.07;;;1.00;90.90;;;;;;5094181;28;20450;-57
2022/03/04 06:53:59;;;;;;;17.70;12.30;;;0.90;90.90;;;;;;5093801;28;20436;-57
2022/03/04 06:56:26;;;;;;;20.20;13.00;;;0.90;90.80;;;;;;5094010;28;20551;-57
2022/03/04 06:58:54;;;;;;;19.47;14.33;;;0.90;91.00;;;;;;5093795;28;20479;-58
2022/03/04 07:01:22;;;;;;;21.63;13.90;;;1.00;91.10;;;;;;5094135;28;20447;-57
2022/03/04 07:03:49;;;;;;;18.50;14.07;;;1.00;90.90;;;;;;5093917;28;20857;-57
2022/03/04 07:06:18;;;;;;;21.90;15.40;;;1.10;90.70;;;;;;5093912;28;20502;-57
2022/03/04 07:08:45;;;;;;;20.67;14.80;;;1.20;91.70;;;;;;5093939;28;20439;-57
2022/03/04 07:11:12;;;;;;;18.30;14.33;;;1.30;91.90;;;;;;5093800;28;20475;-58
2022/03/04 07:13:39;;;;;;;18.87;15.40;;;1.40;92.80;;;;;;5093612;28;20452;-57
2022/03/04 07:16:09;;;;;;;19.00;14.30;;;1.50;90.80;;;;;;5093896;28;20463;-58
2022/03/04 07:18:36;;;;;;;22.00;15.40;;;1.50;89.60;;;;;;5093391;28;20496;-57
2022/03/04 07:21:03;;;;;;;27.73;14.80;;;1.60;89.20;;;;;;5093537;28;20436;-58
2022/03/04 07:23:30;;;;;;;20.60;14.60;;;1.60;90.10;;;;;;5093415;28;20451;-57
2022/03/04 07:25:57;;;;;;;23.90;14.57;;;1.70;90.80;;;;;;5093427;28;20447;-57
2022/03/04 07:28:24;;;;;;;22.57;16.03;;;1.80;89.80;;;;;;5093492;28;20991;-58
2022/03/04 07:30:52;;;;;;;19.87;13.57;;;1.80;89.70;;;;;;5093513;28;20450;-58
2022/03/04 07:33:20;;;;;;;20.93;15.97;;;1.90;88.90;;;;;;5093650;28;20530;-57
2022/03/04 07:35:47;;;;;;;24.33;14.87;;;1.90;88.50;;;;;;5093546;28;20451;-57
2022/03/04 07:38:15;;;;;;;20.83;15.40;;;1.80;86.60;;;;;;5093654;28;20453;-57
2022/03/04 07:40:42;;;;;;;24.00;15.60;;;1.90;87.50;;;;;;5093230;28;20544;-57
2022/03/04 07:43:09;;;;;;;19.37;15.90;;;2.00;87.20;;;;;;5093301;28;20439;-58
2022/03/04 07:45:37;;;;;;;25.73;15.43;;;2.10;86.20;;;;;;5093427;28;20435;-57
2022/03/04 07:48:04;;;;;;;23.47;15.10;;;2.10;86.90;;;;;;5093284;28;20452;-57
2022/03/04 07:50:33;;;;;;;23.60;17.33;;;2.20;84.90;;;;;;5093238;28;20475;-58
2022/03/04 07:53:00;;;;;;;21.90;15.63;;;2.10;84.20;;;;;;5093399;28;20479;-57
2022/03/04 07:55:28;;;;;;;20.47;15.60;;;2.20;85.10;;;;;;5093694;28;20466;-57
2022/03/04 07:57:55;;;;;;;29.80;16.37;;;2.30;83.80;;;;;;5093046;28;20467;-57
2022/03/04 08:00:24;;;;;;;26.77;17.13;;;2.40;83.60;;;;;;5092914;28;20479;-57
2022/03/04 08:02:53;;;;;;;26.57;16.03;;;2.30;82.80;;;;;;5093443;28;20883;-57
2022/03/04 08:05:20;;;;;;;26.90;15.50;;;2.30;82.40;;;;;;5093489;28;20471;-57
2022/03/04 08:07:49;;;;;;;24.60;16.70;;;2.30;83.20;;;;;;5093055;28;20447;-57
2022/03/04 08:10:16;;;;;;;28.43;15.70;;;2.40;82.60;;;;;;5093035;28;20443;-57
2022/03/04 08:12:44;;;;;;;26.77;16.27;;;2.50;83.20;;;;;;5093301;28;20447;-57
2022/03/04 08:15:13;;;;;;;24.53;16.50;;;2.50;82.30;;;;;;5093318;28;20449;-57
2022/03/04 08:17:45;;;;;;;23.30;17.17;;;2.60;82.50;;;;;;5092981;28;20499;-57
2022/03/04 08:20:12;;;;;;;25.90;16.00;;;2.70;83.00;;;;;;5092837;28;20483;-57
2022/03/04 08:22:40;;;;;;;28.00;16.77;;;2.70;83.20;;;;;;5093082;28;20454;-57
2022/03/04 08:25:10;;;;;;;26.43;16.40;;;2.80;82.90;;;;;;5096445;28;20778;-57
2022/03/04 08:27:41;;;;;;;26.10;16.77;;;2.80;82.10;;;;;;5096422;28;20562;-57
2022/03/04 08:30:10;;;;;;;19.47;15.07;;;2.80;82.00;;;;;;5096620;28;20445;-57
2022/03/04 08:32:37;;;;;;;24.33;16.40;;;2.90;82.20;;;;;;5096257;28;20453;-57
2022/03/04 08:35:06;;;;;;;31.40;17.60;;;3.00;82.60;;;;;;5096750;28;20530;-57
2022/03/04 08:37:34;;;;;;;24.33;16.60;;;3.10;81.30;;;;;;5096683;28;20475;-57
2022/03/04 08:40:01;;;;;;;30.23;17.37;;;3.10;81.20;;;;;;5096362;28;20485;-57
2022/03/04 08:42:30;;;;;;;31.30;18.13;;;3.20;82.40;;;;;;5096632;28;20475;-57
2022/03/04 08:44:57;;;;;;;25.00;15.97;;;3.30;81.20;;;;;;5096617;28;20466;-57
2022/03/04 08:47:24;;;;;;;30.17;18.30;;;3.10;80.80;;;;;;5096468;28;20870;-57
2022/03/04 08:49:51;;;;;;;28.90;16.33;;;3.10;81.60;;;;;;5096159;28;20543;-58
2022/03/04 08:52:19;;;;;;;29.50;18.53;;;3.30;81.00;;;;;;5096375;28;20473;-57
2022/03/04 08:54:46;;;;;;;27.70;17.50;;;3.40;79.80;;;;;;5096166;28;20550;-57
2022/03/04 08:57:13;;;;;;;26.43;17.00;;;3.40;81.10;;;;;;5095954;28;20984;-57
2022/03/04 08:59:42;;;;;;;29.53;17.37;;;3.40;80.30;;;;;;5096201;28;20516;-57
2022/03/04 09:02:09;;;;;;;23.40;17.57;;;3.50;80.40;;;;;;5096032;28;20443;-57
2022/03/04 09:04:37;;;;;;;25.60;17.50;;;3.60;79.10;;;;;;5096236;28;20448;-57
2022/03/04 09:07:06;;;;;;;21.37;16.40;;;3.70;79.60;;;;;;5095782;28;20550;-57
2022/03/04 09:09:34;;;;;;;23.47;17.40;;;3.80;80.00;;;;;;5096861;28;20443;-58
2022/03/04 09:12:01;;;;;;;20.20;15.50;;;4.00;80.20;;;;;;5096915;28;20450;-57
2022/03/04 09:14:28;;;;;;;25.50;17.30;;;4.00;79.00;;;;;;5096561;28;20451;-57
2022/03/04 09:16:57;;;;;;;22.00;16.83;;;4.00;78.20;;;;;;5095938;28;20493;-57
2022/03/04 09:19:24;;;;;;;22.90;17.30;;;4.10;77.20;;;;;;5096491;28;20576;-57
2022/03/04 09:21:51;;;;;;;27.70;18.60;;;4.10;77.40;;;;;;5095708;28;20542;-57
2022/03/04 09:24:18;;;;;;;28.17;18.30;;;4.10;76.40;;;;;;5095857;28;20538;-57
2022/03/04 09:26:46;;;;;;;24.73;18.07;;;4.20;76.50;;;;;;5095564;28;20582;-57
2022/03/04 09:29:13;;;;;;;22.67;18.33;;;4.20;76.50;;;;;;5095431;28;20781;-57
2022/03/04 09:31:40;;;;;;;23.83;17.23;;;4.40;76.40;;;;;;5095725;28;20444;-57
2022/03/04 09:34:08;;;;;;;28.33;19.23;;;4.30;74.10;;;;;;5095158;28;20876;-57
2022/03/04 09:36:36;;;;;;;27.70;16.73;;;4.40;75.80;;;;;;5095246;28;20546;-57
2022/03/04 09:39:04;;;;;;;24.63;19.10;;;4.50;75.40;;;;;;5096654;28;20431;-57
2022/03/04 09:41:31;;;;;;;25.53;18.33;;;4.60;74.10;;;;;;5115319;28;20482;-58
2022/03/04 09:43:59;;;;;;;26.47;18.70;;;4.60;74.70;;;;;;5115366;28;20443;-58
2022/03/04 09:46:26;;;;;;;28.50;17.90;;;4.60;70.80;;;;;;5115790;28;20498;-57
2022/03/04 09:48:54;;;;;;;28.40;18.33;;;4.70;73.60;;;;;;5115814;28;20450;-57
2022/03/04 09:51:23;;;;;;;23.73;17.70;;;4.70;72.90;;;;;;5116290;28;20447;-57
2022/03/04 09:53:52;;;;;;;26.00;17.97;;;4.90;72.90;;;;;;5115312;28;20541;-57
2022/03/04 09:56:20;;;;;;;26.97;17.90;;;4.90;72.00;;;;;;5115839;28;20481;-57
2022/03/04 09:58:47;;;;;;;22.07;16.43;;;5.10;72.20;;;;;;5115264;28;20447;-58
2022/03/04 10:01:16;;;;;;;19.53;17.07;;;5.10;72.10;;;;;;5115086;28;20557;-57
2022/03/04 10:03:48;;;;;;;30.10;19.00;;;5.10;72.00;;;;;;5115415;28;20529;-58
2022/03/04 10:06:17;;;;;;;25.30;18.00;;;5.00;71.60;;;;;;5115069;28;20977;-57
2022/03/04 10:08:48;;;;;;;20.43;14.93;;;5.20;70.50;;;;;;5115374;28;20477;-57
2022/03/04 10:11:26;;;;;;;23.43;18.40;;;5.30;67.90;;;;;;5115002;28;20443;-57
2022/03/04 10:13:55;;;;;;;27.73;17.43;;;5.70;69.40;;;;;;5115216;28;20427;-58
2022/03/04 10:16:27;;;;;;;24.80;16.60;;;6.80;67.80;;;;;;5115121;28;20477;-58
2022/03/04 10:19:10;;;;;;;22.90;16.20;;;8.00;63.40;;;;;;5115184;28;20442;-58
2022/03/04 10:21:51;;;;;;;23.47;17.97;;;8.30;59.60;;;;;;5113924;28;20561;-58
2022/03/04 10:24:21;;;;;;;32.87;18.50;;;9.80;58.70;;;;;;5115029;28;20554;-58
2022/03/04 10:26:48;;;;;;;27.07;18.33;;;10.60;55.70;;;;;;5114492;28;20980;-58
2022/03/04 10:29:20;;;;;;;24.70;19.13;;;10.60;55.60;;;;;;5114924;28;20590;-58
2022/03/04 10:32:13;;;;;;;25.67;18.57;;;10.50;53.10;;;;;;5114605;28;20489;-58
2022/03/04 10:34:45;;;;;;;26.73;19.27;;;11.10;53.50;;;;;;5115009;28;20463;-58
2022/03/04 10:37:17;;;;;;;31.43;19.70;;;11.50;53.30;;;;;;5114486;28;20460;-58
2022/03/04 10:40:02;;;;;;;25.00;18.80;;;11.30;51.70;;;;;;5114747;28;20438;-58
2022/03/04 10:42:40;;;;;;;24.50;18.27;;;11.70;52.70;;;;;;5113430;28;20451;-58
2022/03/04 10:45:09;;;;;;;29.30;18.93;;;12.00;50.90;;;;;;5114488;28;20414;-58
2022/03/04 10:47:45;;;;;;;22.80;18.83;;;12.60;50.40;;;;;;5113871;28;20541;-59
2022/03/04 10:50:13;;;;;;;23.90;19.37;;;;;;;;;;5114351;28;20441;-58
2022/03/04 10:52:50;;;;;;;22.67;18.20;;;;;;;;;;5114494;28;20797;-58
2022/03/04 10:55:34;;;;;;;25.77;18.93;;;14.10;49.60;;;;;;5114495;28;20461;-58
2022/03/04 10:58:04;;;;;;;26.70;20.00;;;13.90;47.40;;;;;;5114122;28;20490;-58
2022/03/04 11:00:34;;;;;;;25.83;19.17;;;13.80;49.60;;;;;;5114034;28;21043;-58
2022/03/04 11:03:02;;;;;;;25.93;19.27;;;13.20;46.70;;;;;;5114026;28;20443;-57
2022/03/04 11:05:29;;;;;;;27.77;20.30;;;13.10;48.40;;;;;;5114230;28;20446;-57
2022/03/04 11:07:57;;;;;;;23.87;18.47;;;13.50;47.60;;;;;;5113920;28;20545;-57
2022/03/04 11:10:25;;;;;;;24.07;19.90;;;12.60;47.60;;;;;;5114230;28;20449;-57
2022/03/04 11:12:55;;;;;;;22.77;17.50;;;12.50;47.10;;;;;;5113694;28;20517;-58
2022/03/04 11:15:24;;;;;;;23.23;18.83;;;12.80;47.40;;;;;;5114226;28;20442;-58
2022/03/04 11:17:53;;;;;;;27.50;20.53;;;12.70;47.40;;;;;;5114090;28;20526;-58
2022/03/04 11:20:20;;;;;;;22.33;17.03;;;13.10;46.40;;;;;;5113979;28;20484;-58
2022/03/04 11:22:53;;;;;;;26.10;19.70;;;13.80;46.50;;;;;;5114074;28;20533;-57
2022/03/04 11:25:22;;;;;;;23.90;17.50;;;13.80;45.90;;;;;;5114036;28;21027;-57
2022/03/04 11:27:51;;;;;;;26.70;19.53;;;13.70;46.20;;;;;;5113632;28;20478;-58
2022/03/04 11:30:35;;;;;;;21.00;17.10;;;13.80;45.50;;;;;;5113734;28;21015;-58
2022/03/04 11:33:06;;;;;;;23.83;18.63;;;13.20;45.00;;;;;;5113638;28;20433;-57
2022/03/04 11:36:10;;;;;;;24.33;19.30;;;14.20;45.20;;;;;;5113632;28;20869;-58
2022/03/04 11:39:10;;;;;;;23.77;18.17;;;14.60;44.90;;;;;;5114000;28;20488;-58
2022/03/04 11:42:07;;;;;;;22.57;17.30;;;16.00;45.20;;;;;;5113715;28;20844;-58
2022/03/04 11:44:58;;;;;;;24.73;18.17;;;16.00;44.70;;;;;;5113675;28;20492;-58
2022/03/04 11:47:30;;;;;;;22.10;18.53;;;15.90;42.60;;;;;;5113801;28;20470;-57
2022/03/04 11:49:57;;;;;;;23.43;19.40;;;15.00;43.80;;;;;;5113529;28;20463;-58
2022/03/04 11:52:41;;;;;;;25.37;20.40;;;14.70;43.70;;;;;;5113690;28;20530;-58
2022/03/04 11:55:16;;;;;;;26.33;18.20;;;14.50;43.70;;;;;;5114087;28;20454;-58
2022/03/04 11:57:44;;;;;;;25.57;18.57;;;14.80;45.30;;;;;;5113783;28;20465;-58
2022/03/04 12:00:27;;;;;;;23.17;18.03;;;15.30;43.80;;;;;;5117140;28;20452;-58
2022/03/04 12:02:56;;;;;;;23.93;17.40;;;15.40;41.80;;;;;;5117591;28;20422;-58
2022/03/04 12:05:26;;;;;;;24.40;18.20;;;15.20;42.60;;;;;;5117486;28;20444;-58
2022/03/04 12:08:10;;;;;;;21.03;17.17;;;14.50;40.80;;;;;;5117235;28;20462;-58
2022/03/04 12:10:43;;;;;;;18.30;14.47;;;15.00;42.00;;;;;;5117523;28;20399;-58
2022/03/04 12:13:13;;;;;;;18.60;13.80;;;14.40;39.90;;;;;;5117499;28;20785;-58
2022/03/04 12:15:42;;;;;;;19.27;14.77;;;14.40;39.70;;;;;;5118286;28;20473;-58
2022/03/04 12:18:18;;;;;;;22.47;15.90;;;15.50;41.90;;;;;;5117418;28;20468;-57
2022/03/04 12:21:14;;;;;;;19.40;15.60;;;15.60;40.20;;;;;;5117393;28;20466;-57
2022/03/04 12:23:53;;;;;;;18.70;15.57;;;15.70;40.10;;;;;;5117455;28;20480;-58
2022/03/04 12:26:23;;;;;;;17.70;13.13;;;14.60;38.40;;;;;;5117258;28;20800;-58
2022/03/04 12:28:52;;;;;;;16.83;13.07;;;14.80;39.70;;;;;;5117004;28;20545;-58
2022/03/04 12:31:24;;;;;;;14.47;12.57;;;13.90;36.80;;;;;;5116925;28;20453;-58
2022/03/04 12:33:58;;;;;;;23.97;13.33;;;14.50;37.20;;;;;;5117027;28;20426;-58
2022/03/04 12:36:28;;;;;;;16.60;11.90;;;14.90;38.10;;;;;;5117126;28;20815;-58
2022/03/04 12:38:56;;;;;;;15.47;11.63;;;14.30;37.30;;;;;;5117066;28;20446;-57
2022/03/04 12:41:26;;;;;;;16.37;11.60;;;13.40;36.80;;;;;;5116752;28;20485;-57
2022/03/04 12:43:54;;;;;;;16.03;12.27;;;13.60;36.50;;;;;;5117566;28;20490;-57